createdAt,value
2022-10-04T00:02:00.688Z,7.98
2022-10-04T00:04:35.977Z,7.95
2022-10-04T00:07:10.768Z,8.01
2022-10-04T00:09:49.230Z,8.14
2022-10-04T00:12:25.605Z,7.89
2022-10-04T00:14:58.166Z,7.60
2022-10-04T00:17:31.798Z,7.53
2022-10-04T00:20:01.898Z,7.56
2022-10-04T00:22:32.725Z,7.51
2022-10-04T00:25:23.342Z,7.55
2022-10-04T00:28:32.344Z,7.56
2022-10-04T00:31:22.095Z,7.73
2022-10-04T00:33:54.333Z,7.62
2022-10-04T00:36:51.004Z,7.43
2022-10-04T00:39:42.115Z,7.42
2022-10-04T00:42:41.628Z,7.59
2022-10-04T00:45:33.850Z,7.19
2022-10-04T00:48:34.184Z,7.60
2022-10-04T00:51:11.990Z,7.45
2022-10-04T00:53:50.598Z,7.40
2022-10-04T00:56:28.919Z,7.87
2022-10-04T00:59:25.138Z,7.81
2022-10-04T01:02:01.743Z,7.59
2022-10-04T01:04:40.803Z,7.52
2022-10-04T01:07:12.782Z,7.63
2022-10-04T01:09:51.578Z,7.32
2022-10-04T01:12:35.347Z,7.38
2022-10-04T01:15:10.550Z,7.14
2022-10-04T01:17:40.499Z,7.08
2022-10-04T01:20:35.028Z,7.37
2022-10-04T01:23:08.144Z,7.29
2022-10-04T01:25:50.051Z,7.38
2022-10-04T01:28:20.496Z,7.51
2022-10-04T01:30:50.704Z,7.62
2022-10-04T01:33:20.599Z,7.58
2022-10-04T01:35:51.145Z,7.48
2022-10-04T01:38:23.599Z,7.73
2022-10-04T01:41:00.114Z,7.81
2022-10-04T01:43:35.936Z,7.42
2022-10-04T01:46:12.051Z,7.32
2022-10-04T01:48:46.687Z,7.10
2022-10-04T01:51:21.182Z,7.18
2022-10-04T01:53:59.150Z,6.92
2022-10-04T01:56:35.051Z,7.10
2022-10-04T01:59:10.409Z,7.00
2022-10-04T02:01:48.490Z,6.79
2022-10-04T02:04:22.735Z,6.73
2022-10-04T02:06:57.854Z,6.50
2022-10-04T02:09:35.068Z,6.40
2022-10-04T02:12:06.447Z,7.04
2022-10-04T02:14:37.498Z,6.78
2022-10-04T02:17:11.671Z,7.08
2022-10-04T02:19:45.198Z,6.79
2022-10-04T02:22:15.088Z,6.58
2022-10-04T02:24:51.382Z,6.66
2022-10-04T02:27:21.227Z,6.66
2022-10-04T02:29:50.986Z,6.81
2022-10-04T02:32:33.313Z,6.63
2022-10-04T02:35:04.171Z,6.74
2022-10-04T02:37:34.810Z,7.00
2022-10-04T02:40:15.863Z,7.15
2022-10-04T02:42:52.211Z,7.02
2022-10-04T02:45:27.523Z,6.78
2022-10-04T02:48:04.135Z,7.09
2022-10-04T02:50:39.203Z,7.30
2022-10-04T02:53:21.572Z,7.14
2022-10-04T02:55:54.482Z,6.80
2022-10-04T02:58:26.871Z,6.64
2022-10-04T03:01:00.938Z,6.53
2022-10-04T03:03:32.532Z,6.80
2022-10-04T03:06:09.853Z,6.88
2022-10-04T03:08:47.813Z,6.79
2022-10-04T03:11:22.843Z,6.58
2022-10-04T03:13:55.703Z,6.56
2022-10-04T03:16:26.438Z,6.63
2022-10-04T03:18:59.790Z,6.74
2022-10-04T03:21:30.563Z,6.81
2022-10-04T03:24:01.193Z,7.02
2022-10-04T03:26:39.601Z,6.37
2022-10-04T03:29:12.118Z,6.26
2022-10-04T03:31:45.883Z,6.34
2022-10-04T03:34:20.242Z,6.18
2022-10-04T03:36:52.236Z,6.43
2022-10-04T03:39:30.850Z,6.19
2022-10-04T03:42:07.235Z,6.39
2022-10-04T03:44:37.823Z,6.23
2022-10-04T03:47:12.215Z,6.52
2022-10-04T03:49:48.545Z,6.39
2022-10-04T03:52:25.621Z,6.41
2022-10-04T03:54:58.180Z,6.50
2022-10-04T03:57:31.437Z,6.43
2022-10-04T04:00:02.189Z,6.43
2022-10-04T04:02:38.840Z,6.30
2022-10-04T04:05:17.647Z,6.36
2022-10-04T04:07:49.664Z,6.59
2022-10-04T04:10:24.676Z,6.84
2022-10-04T04:13:01.631Z,6.50
2022-10-04T04:15:32.866Z,6.65
2022-10-04T04:18:06.288Z,6.39
2022-10-04T04:20:38.188Z,6.18
2022-10-04T04:23:19.356Z,6.01
2022-10-04T04:25:52.175Z,6.39
2022-10-04T04:28:33.127Z,6.41
2022-10-04T04:31:07.027Z,6.39
2022-10-04T04:33:46.462Z,6.29
2022-10-04T04:36:18.681Z,6.11
2022-10-04T04:39:00.697Z,6.42
2022-10-04T04:41:35.577Z,6.33
2022-10-04T04:44:19.581Z,6.16
2022-10-04T04:46:50.258Z,6.35
2022-10-04T04:49:23.903Z,6.38
2022-10-04T04:51:56.045Z,6.46
2022-10-04T04:54:28.855Z,6.61
2022-10-04T04:56:59.776Z,6.41
2022-10-04T04:59:32.367Z,6.42
2022-10-04T05:02:02.209Z,6.61
2022-10-04T05:04:32.115Z,6.40
2022-10-04T05:07:10.164Z,6.17
2022-10-04T05:09:41.394Z,6.23
2022-10-04T05:12:16.666Z,6.32
2022-10-04T05:14:53.190Z,6.26
2022-10-04T05:17:25.944Z,6.30
2022-10-04T05:19:59.123Z,6.43
2022-10-04T05:22:30.270Z,6.55
2022-10-04T05:25:03.874Z,6.37
2022-10-04T05:27:38.338Z,6.40
2022-10-04T05:30:17.494Z,6.38
2022-10-04T05:33:00.837Z,6.40
2022-10-04T05:35:32.341Z,6.26
2022-10-04T05:38:07.879Z,6.43
2022-10-04T05:40:47.587Z,6.47
2022-10-04T05:43:35.072Z,6.53
2022-10-04T05:46:31.267Z,6.67
2022-10-04T05:49:04.370Z,6.58
2022-10-04T05:51:38.743Z,6.74
2022-10-04T05:54:12.165Z,6.47
2022-10-04T05:57:05.470Z,6.51
2022-10-04T05:59:55.470Z,6.38
2022-10-04T06:02:40.153Z,6.23
2022-10-04T06:05:17.289Z,6.29
2022-10-04T06:07:56.901Z,6.10
2022-10-04T06:10:52.140Z,6.17
2022-10-04T06:13:41.612Z,6.35
2022-10-04T06:16:23.028Z,6.41
2022-10-04T06:19:37.481Z,6.22
2022-10-04T06:22:19.003Z,6.17
2022-10-04T06:24:53.097Z,6.25
2022-10-04T06:27:30.276Z,6.31
2022-10-04T06:30:05.651Z,6.47
2022-10-04T06:33:08.145Z,6.51
2022-10-04T06:36:10.708Z,6.43
2022-10-04T06:39:10.747Z,6.44
2022-10-04T06:42:07.734Z,6.65
2022-10-04T06:44:47.756Z,6.89
2022-10-04T06:47:36.293Z,7.03
2022-10-04T06:50:22.518Z,6.87
2022-10-04T06:53:07.647Z,6.85
2022-10-04T06:56:05.803Z,6.81
2022-10-04T06:59:00.346Z,6.99
2022-10-04T07:01:32.878Z,7.15
2022-10-04T07:04:15.381Z,7.17
2022-10-04T07:06:52.156Z,7.05
2022-10-04T07:09:27.370Z,7.35
2022-10-04T07:12:09.030Z,7.19
2022-10-04T07:14:46.420Z,7.07
2022-10-04T07:17:20.940Z,7.40
2022-10-04T07:19:52.765Z,7.44
2022-10-04T07:22:31.278Z,7.65
2022-10-04T07:25:10.090Z,7.57
2022-10-04T07:28:12.923Z,7.65
2022-10-04T07:30:45.850Z,7.66
2022-10-04T07:33:21.147Z,7.79
2022-10-04T07:35:56.977Z,7.80
2022-10-04T07:38:30.257Z,7.84
2022-10-04T07:41:12.163Z,7.94
2022-10-04T07:43:53.593Z,7.78
2022-10-04T07:46:29.208Z,7.80
2022-10-04T07:49:00.199Z,7.96
2022-10-04T07:51:37.516Z,8.02
2022-10-04T07:54:17.533Z,8.14
2022-10-04T07:56:54.774Z,8.25
2022-10-04T07:59:41.036Z,8.46
2022-10-04T08:02:25.566Z,8.55
2022-10-04T08:05:11.188Z,8.99
2022-10-04T08:07:53.451Z,9.07
2022-10-04T08:10:30.734Z,8.98
2022-10-04T08:13:08.291Z,9.17
2022-10-04T08:15:42.673Z,9.07
2022-10-04T08:18:32.489Z,9.12
2022-10-04T08:21:05.066Z,8.93
2022-10-04T08:23:50.756Z,8.99
2022-10-04T08:26:43.324Z,9.27
2022-10-04T08:29:42.395Z,9.29
2022-10-04T08:32:28.699Z,9.16
2022-10-04T08:35:23.639Z,9.24
2022-10-04T08:38:06.887Z,9.41
2022-10-04T08:41:24.420Z,9.55
2022-10-04T08:44:27.405Z,9.95
2022-10-04T08:47:29.611Z,10.19
2022-10-04T08:50:27.823Z,10.77
2022-10-04T08:53:40.941Z,10.99
2022-10-04T08:56:21.419Z,11.36
2022-10-04T08:59:13.036Z,11.62
2022-10-04T09:02:18.207Z,11.84
2022-10-04T09:05:16.416Z,12.09
2022-10-04T09:08:14.968Z,12.54
2022-10-04T09:11:22.977Z,12.74
2022-10-04T09:14:15.083Z,12.70
2022-10-04T09:16:49.741Z,12.81
2022-10-04T09:19:25.147Z,12.96
2022-10-04T09:22:22.182Z,13.11
2022-10-04T09:25:21.470Z,13.21
2022-10-04T09:28:07.536Z,13.18
2022-10-04T09:30:57.942Z,13.50
2022-10-04T09:33:57.367Z,13.39
2022-10-04T09:37:01.198Z,13.70
2022-10-04T09:39:59.228Z,13.80
2022-10-04T09:43:09.523Z,14.05
2022-10-04T09:46:12.757Z,13.79
2022-10-04T09:48:53.479Z,14.29
2022-10-04T09:51:41.126Z,14.03
2022-10-04T09:54:25.214Z,14.32
2022-10-04T09:57:11.689Z,14.46
2022-10-04T10:00:00.122Z,14.36
2022-10-04T10:03:01.909Z,14.77
2022-10-04T10:05:50.225Z,14.98
2022-10-04T10:08:29.845Z,14.67
2022-10-04T10:11:22.099Z,14.77
2022-10-04T10:14:33.177Z,15.15
2022-10-04T10:17:14.830Z,15.19
2022-10-04T10:20:12.182Z,15.79
2022-10-04T10:23:16.330Z,16.14
2022-10-04T10:26:03.054Z,16.21
2022-10-04T10:28:51.986Z,16.61
2022-10-04T10:31:51.161Z,17.21
2022-10-04T10:34:52.474Z,17.77
2022-10-04T10:37:37.998Z,18.45
2022-10-04T10:40:31.876Z,19.06
2022-10-04T10:43:21.302Z,19.12
2022-10-04T10:46:07.500Z,19.77
2022-10-04T10:48:56.845Z,20.43
2022-10-04T10:51:56.106Z,20.22
2022-10-04T10:54:54.019Z,20.45
2022-10-04T10:57:46.351Z,21.09
2022-10-04T11:00:24.232Z,21.08
2022-10-04T11:03:32.391Z,21.70
2022-10-04T11:06:17.437Z,21.85
2022-10-04T11:09:25.844Z,22.01
2022-10-04T11:12:26.375Z,22.79
2022-10-04T11:15:21.029Z,23.31
2022-10-04T11:18:20.607Z,22.98
2022-10-04T11:21:11.721Z,23.18
2022-10-04T11:24:14.405Z,23.24
2022-10-04T11:27:09.144Z,23.52
2022-10-04T11:30:01.870Z,22.91
2022-10-04T11:33:14.856Z,22.61
2022-10-04T11:36:01.525Z,22.61
2022-10-04T11:39:01.489Z,21.62
2022-10-04T11:41:50.366Z,21.74
2022-10-04T11:44:59.990Z,21.31
2022-10-04T11:47:43.318Z,20.68
2022-10-04T11:50:37.307Z,20.68
2022-10-04T11:53:42.227Z,20.27
2022-10-04T11:56:34.252Z,19.87
2022-10-04T11:59:19.078Z,20.10
2022-10-04T12:02:09.427Z,19.79
2022-10-04T12:05:12.840Z,19.41
2022-10-04T12:08:04.617Z,19.14
2022-10-04T12:10:39.582Z,19.66
2022-10-04T12:13:41.119Z,19.75
2022-10-04T12:16:41.337Z,19.74
2022-10-04T12:19:34.303Z,19.87
2022-10-04T12:22:32.090Z,19.77
2022-10-04T12:25:35.312Z,19.61
2022-10-04T12:28:21.711Z,19.82
2022-10-04T12:31:17.045Z,19.36
2022-10-04T12:33:54.834Z,19.66
2022-10-04T12:36:41.550Z,19.36
2022-10-04T12:39:42.264Z,19.00
2022-10-04T12:42:29.291Z,19.02
2022-10-04T12:45:26.365Z,19.00
2022-10-04T12:48:08.680Z,18.76
2022-10-04T12:50:52.651Z,18.77
2022-10-04T12:53:39.237Z,18.75
2022-10-04T12:56:22.415Z,18.71
2022-10-04T12:59:15.513Z,18.75
2022-10-04T13:01:59.488Z,18.80
2022-10-04T13:04:36.441Z,18.61
2022-10-04T13:07:29.111Z,18.21
2022-10-04T13:10:24.519Z,18.32
2022-10-04T13:13:35.154Z,18.17
2022-10-04T13:19:22.633Z,18.39
2022-10-04T13:22:37.545Z,18.58
2022-10-04T13:25:29.481Z,18.69
2022-10-04T13:28:05.996Z,18.65
2022-10-04T13:30:41.273Z,18.49
2022-10-04T13:33:27.028Z,18.43
2022-10-04T13:36:06.743Z,18.55
2022-10-04T13:39:10.949Z,18.54
2022-10-04T13:41:58.242Z,18.37
2022-10-04T13:44:48.474Z,18.26
2022-10-04T13:47:45.097Z,18.36
2022-10-04T13:50:35.144Z,18.28
2022-10-04T13:53:31.702Z,18.37
2022-10-04T13:56:21.168Z,18.39
2022-10-04T13:59:00.818Z,18.35
2022-10-04T14:02:10.626Z,18.25
2022-10-04T14:05:09.636Z,18.29
2022-10-04T14:08:07.294Z,18.30
2022-10-04T14:10:59.123Z,18.25
2022-10-04T14:13:55.697Z,18.46
2022-10-04T14:16:47.295Z,18.28
2022-10-04T14:20:00.632Z,18.14
2022-10-04T14:22:51.803Z,18.18
2022-10-04T14:26:05.302Z,18.09
2022-10-04T14:29:16.316Z,18.13
2022-10-04T14:32:10.103Z,18.22
2022-10-04T14:35:00.683Z,18.23
2022-10-04T14:37:56.356Z,18.28
2022-10-04T14:41:07.410Z,18.20
2022-10-04T14:44:26.488Z,18.08
2022-10-04T14:47:14.402Z,18.05
2022-10-04T14:50:02.361Z,17.97
2022-10-04T14:52:46.741Z,17.93
2022-10-04T14:55:32.646Z,17.91
2022-10-04T14:58:19.076Z,17.97
2022-10-04T15:01:05.954Z,18.09
2022-10-04T15:03:49.883Z,18.11
2022-10-04T15:06:29.903Z,18.04
2022-10-04T15:09:28.882Z,18.01
2022-10-04T15:12:29.572Z,18.01
2022-10-04T15:15:23.974Z,17.92
2022-10-04T15:18:04.335Z,17.96
2022-10-04T15:20:53.470Z,17.84
2022-10-04T15:23:35.806Z,17.84
2022-10-04T15:26:11.365Z,17.80
2022-10-04T15:29:00.192Z,17.77
2022-10-04T15:31:37.817Z,17.73
2022-10-04T15:34:16.888Z,17.66
2022-10-04T15:37:06.117Z,17.61
2022-10-04T15:40:02.496Z,17.53
2022-10-04T15:42:36.613Z,17.53
2022-10-04T15:45:25.949Z,17.48
2022-10-04T15:48:13.388Z,17.43
2022-10-04T15:50:57.764Z,17.51
2022-10-04T15:53:50.564Z,17.31
2022-10-04T15:56:36.180Z,17.29
2022-10-04T15:59:25.238Z,17.11
2022-10-04T16:02:11.176Z,17.02
2022-10-04T16:04:48.167Z,16.98
2022-10-04T16:07:51.754Z,16.95
2022-10-04T16:10:31.260Z,16.90
2022-10-04T16:13:23.142Z,16.84
2022-10-04T16:16:34.083Z,16.69
2022-10-04T16:19:14.215Z,16.62
2022-10-04T16:21:53.015Z,16.59
2022-10-04T16:24:45.833Z,16.52
2022-10-04T16:27:46.261Z,16.42
2022-10-04T16:30:28.323Z,16.38
2022-10-04T16:33:22.999Z,16.19
2022-10-04T16:36:08.798Z,16.05
2022-10-04T16:39:06.447Z,15.99
2022-10-04T16:41:44.406Z,15.85
2022-10-04T16:44:32.062Z,15.81
2022-10-04T16:47:05.126Z,15.67
2022-10-04T16:49:42.000Z,15.71
2022-10-04T16:52:30.330Z,15.58
2022-10-04T16:55:13.542Z,15.61
2022-10-04T16:57:43.591Z,15.56
2022-10-04T17:00:38.842Z,15.43
2022-10-04T17:03:26.825Z,15.38
2022-10-04T17:06:15.016Z,15.28
2022-10-04T17:09:04.709Z,15.12
2022-10-04T17:12:00.388Z,14.88
2022-10-04T17:14:50.338Z,14.71
2022-10-04T17:17:26.883Z,14.59
2022-10-04T17:19:59.164Z,14.44
2022-10-04T17:22:38.793Z,14.31
2022-10-04T17:25:27.809Z,14.34
2022-10-04T17:28:02.089Z,14.43
2022-10-04T17:30:46.186Z,14.50
2022-10-04T17:33:30.908Z,14.36
2022-10-04T17:36:07.609Z,14.34
2022-10-04T17:38:47.333Z,14.28
2022-10-04T17:41:26.776Z,14.34
2022-10-04T17:44:28.729Z,14.41
2022-10-04T17:47:04.680Z,14.39
2022-10-04T17:49:58.485Z,14.19
2022-10-04T17:52:49.276Z,14.20
2022-10-04T17:55:28.920Z,14.22
2022-10-04T17:58:05.254Z,14.21
2022-10-04T18:00:54.452Z,14.11
2022-10-04T18:03:28.202Z,14.05
2022-10-04T18:06:03.851Z,14.09
2022-10-04T18:08:47.148Z,13.98
2022-10-04T18:11:27.775Z,13.92
2022-10-04T18:14:03.871Z,13.89
2022-10-04T18:16:35.492Z,13.87
2022-10-04T18:19:36.216Z,13.85
2022-10-04T18:22:15.792Z,13.85
2022-10-04T18:24:47.678Z,13.78
2022-10-04T18:27:21.412Z,13.79
2022-10-04T18:30:10.818Z,13.69
2022-10-04T18:32:40.985Z,13.65
2022-10-04T18:35:27.532Z,13.73
2022-10-04T18:38:16.058Z,13.70
2022-10-04T18:40:56.713Z,13.56
2022-10-04T18:43:30.066Z,13.46
2022-10-04T18:46:07.019Z,13.52
2022-10-04T18:48:43.587Z,13.54
2022-10-04T18:51:30.013Z,13.46
2022-10-04T18:54:26.499Z,13.41
2022-10-04T18:57:07.673Z,13.46
2022-10-04T18:59:59.375Z,13.33
2022-10-04T19:02:35.850Z,13.37
2022-10-04T19:05:15.521Z,13.30
2022-10-04T19:07:52.367Z,13.32
2022-10-04T19:10:30.773Z,13.31
2022-10-04T19:13:14.066Z,13.27
2022-10-04T19:15:52.035Z,13.22
2022-10-04T19:18:40.339Z,13.18
2022-10-04T19:21:22.020Z,13.18
2022-10-04T19:24:10.411Z,13.13
2022-10-04T19:26:44.699Z,13.08
2022-10-04T19:29:28.683Z,13.00
2022-10-04T19:32:04.070Z,12.94
2022-10-04T19:34:45.649Z,12.90
2022-10-04T19:37:24.542Z,12.84
2022-10-04T19:40:07.937Z,12.91
2022-10-04T19:42:50.433Z,12.86
2022-10-04T19:45:28.806Z,12.89
2022-10-04T19:48:01.620Z,12.89
2022-10-04T19:50:35.663Z,12.69
2022-10-04T19:53:10.280Z,12.66
2022-10-04T19:55:50.014Z,12.77
2022-10-04T19:58:32.109Z,12.66
2022-10-04T20:01:02.112Z,12.63
2022-10-04T20:03:31.954Z,12.75
2022-10-04T20:06:03.608Z,12.65
2022-10-04T20:08:55.733Z,12.74
2022-10-04T20:11:30.627Z,12.70
2022-10-04T20:14:50.323Z,12.63
2022-10-04T20:17:36.088Z,12.65
2022-10-04T20:20:06.098Z,12.60
2022-10-04T20:22:58.096Z,12.60
2022-10-04T20:25:57.883Z,12.64
2022-10-04T20:28:45.136Z,12.58
2022-10-04T20:31:53.233Z,12.48
2022-10-04T20:34:35.989Z,12.54
2022-10-04T20:37:08.386Z,12.52
2022-10-04T20:40:02.293Z,12.48
2022-10-04T20:42:36.627Z,12.42
2022-10-04T20:45:24.883Z,12.48
2022-10-04T20:47:57.862Z,12.47
2022-10-04T20:50:42.529Z,12.40
2022-10-04T20:53:21.945Z,12.38
2022-10-04T20:55:54.074Z,12.22
2022-10-04T20:58:35.568Z,12.22
2022-10-04T21:01:17.090Z,12.17
2022-10-04T21:03:46.982Z,12.12
2022-10-04T21:06:19.424Z,12.09
2022-10-04T21:08:50.408Z,12.10
2022-10-04T21:11:22.657Z,12.17
2022-10-04T21:14:03.121Z,12.20
2022-10-04T21:16:45.066Z,12.03
2022-10-04T21:19:50.681Z,12.03
2022-10-04T21:22:39.656Z,12.07
2022-10-04T21:25:32.223Z,12.00
2022-10-04T21:28:40.608Z,12.02
2022-10-04T21:31:10.728Z,11.93
2022-10-04T21:33:40.925Z,11.88
2022-10-04T21:36:11.401Z,11.74
2022-10-04T21:38:43.791Z,11.59
2022-10-04T21:41:13.603Z,11.60
2022-10-04T21:43:43.337Z,11.58
2022-10-04T21:46:17.854Z,11.63
2022-10-04T21:48:49.916Z,11.66
2022-10-04T21:51:19.849Z,11.51
2022-10-04T21:53:52.264Z,11.45
2022-10-04T21:56:22.041Z,11.45
2022-10-04T21:58:51.846Z,11.44
2022-10-04T22:01:21.653Z,11.34
2022-10-04T22:03:51.511Z,11.31
2022-10-04T22:06:22.117Z,11.25
2022-10-04T22:08:54.493Z,11.23
2022-10-04T22:11:24.270Z,11.06
2022-10-04T22:13:54.132Z,11.14
2022-10-04T22:16:23.909Z,11.12
2022-10-04T22:18:54.066Z,11.06
2022-10-04T22:21:23.832Z,11.05
2022-10-04T22:23:56.219Z,10.99
2022-10-04T22:26:28.760Z,10.97
2022-10-04T22:28:59.257Z,10.98
2022-10-04T22:31:30.593Z,10.99
2022-10-04T22:34:00.402Z,10.88
2022-10-04T22:36:38.059Z,10.83
2022-10-04T22:39:16.269Z,10.74
2022-10-04T22:41:48.194Z,10.83
2022-10-04T22:44:20.968Z,10.81
2022-10-04T22:46:54.164Z,10.83
2022-10-04T22:49:26.871Z,10.81
2022-10-04T22:51:59.034Z,10.68
2022-10-04T22:54:35.177Z,10.90
2022-10-04T22:57:05.064Z,10.93
2022-10-04T22:59:38.047Z,10.97
2022-10-04T23:02:13.701Z,10.94
2022-10-04T23:04:44.158Z,10.94
2022-10-04T23:07:14.041Z,11.03
2022-10-04T23:09:46.674Z,11.09
2022-10-04T23:12:16.644Z,10.99
2022-10-04T23:14:46.480Z,11.09
2022-10-04T23:17:24.781Z,10.82
2022-10-04T23:19:56.409Z,10.83
2022-10-04T23:22:29.954Z,10.82
2022-10-04T23:25:03.177Z,10.88
2022-10-04T23:27:33.098Z,10.92
2022-10-04T23:30:05.509Z,10.64
2022-10-04T23:32:36.148Z,10.47
2022-10-04T23:35:07.937Z,10.63
2022-10-04T23:37:37.719Z,10.64
2022-10-04T23:40:12.694Z,10.59
2022-10-04T23:42:42.923Z,10.58
2022-10-04T23:45:20.435Z,10.52
2022-10-04T23:47:52.685Z,10.38
2022-10-04T23:50:28.544Z,10.46
2022-10-04T23:53:02.716Z,10.45
2022-10-04T23:55:38.930Z,10.54
2022-10-04T23:58:16.419Z,10.55
